createdAt,value
2023-10-25T00:00:59.314Z,99879.81
2023-10-25T00:02:00.820Z,99889.91
2023-10-25T00:03:02.374Z,99887.19
2023-10-25T00:04:04.104Z,99890.75
2023-10-25T00:05:06.017Z,99892.53
2023-10-25T00:06:07.548Z,99898.25
2023-10-25T00:07:09.412Z,99885.50
2023-10-25T00:08:10.860Z,99882.22
2023-10-25T00:09:12.328Z,99894.72
2023-10-25T00:10:13.884Z,99895.47
2023-10-25T00:11:15.348Z,99893.81
2023-10-25T00:12:16.800Z,99891.97
2023-10-25T00:13:18.383Z,99892.84
2023-10-25T00:14:19.837Z,99887.66
2023-10-25T00:15:22.974Z,99893.06
2023-10-25T00:16:24.636Z,99887.38
2023-10-25T00:17:26.223Z,99897.19
2023-10-25T00:18:28.602Z,99891.97
2023-10-25T00:19:30.213Z,99894.44
2023-10-25T00:20:31.743Z,99894.59
2023-10-25T00:21:33.204Z,99900.50
2023-10-25T00:22:34.675Z,99904.00
2023-10-25T00:23:36.130Z,99905.56
2023-10-25T00:24:37.625Z,99894.44
2023-10-25T00:25:39.144Z,99891.09
2023-10-25T00:26:40.598Z,99893.69
2023-10-25T00:27:42.121Z,99891.84
2023-10-25T00:28:43.572Z,99895.22
2023-10-25T00:29:45.085Z,99893.06
2023-10-25T00:30:46.917Z,99887.59
2023-10-25T00:31:48.497Z,99888.53
2023-10-25T00:32:50.118Z,99893.06
2023-10-25T00:33:51.678Z,99885.09
2023-10-25T00:34:53.290Z,99882.22
2023-10-25T00:35:55.041Z,99887.69
2023-10-25T00:36:56.631Z,99888.69
2023-10-25T00:37:58.846Z,99897.00
2023-10-25T00:39:00.299Z,99889.75
2023-10-25T00:40:01.962Z,99890.56
2023-10-25T00:41:03.759Z,99892.22
2023-10-25T00:42:05.494Z,99877.94
2023-10-25T00:43:17.605Z,99891.97
2023-10-25T00:44:19.129Z,99888.47
2023-10-25T00:45:20.584Z,99883.06
2023-10-25T00:46:30.097Z,99893.06
2023-10-25T00:47:31.820Z,99893.88
2023-10-25T00:48:35.021Z,99884.03
2023-10-25T00:49:36.586Z,99889.34
2023-10-25T00:50:38.055Z,99884.72
2023-10-25T00:51:39.689Z,99887.38
2023-10-25T00:52:41.431Z,99891.09
2023-10-25T00:53:47.083Z,99883.78
2023-10-25T00:54:48.999Z,99890.06
2023-10-25T00:55:51.862Z,99885.53
2023-10-25T00:56:56.937Z,99886.38
2023-10-25T00:57:58.588Z,99884.41
2023-10-25T00:59:00.372Z,99881.72
2023-10-25T01:00:01.971Z,99886.50
2023-10-25T01:01:04.550Z,99879.25
2023-10-25T01:02:08.951Z,99880.91
2023-10-25T01:03:12.466Z,99877.94
2023-10-25T01:04:14.980Z,99872.56
2023-10-25T01:05:16.575Z,99877.00
2023-10-25T01:06:18.560Z,99874.13
2023-10-25T01:07:20.016Z,99875.88
2023-10-25T01:08:22.255Z,99866.06
2023-10-25T01:09:23.945Z,99866.25
2023-10-25T01:10:26.278Z,99869.88
2023-10-25T01:11:27.767Z,99863.41
2023-10-25T01:12:29.378Z,99861.25
2023-10-25T01:13:30.923Z,99860.16
2023-10-25T01:14:32.536Z,99864.66
2023-10-25T01:15:34.042Z,99853.75
2023-10-25T01:16:35.601Z,99857.25
2023-10-25T01:17:37.166Z,99863.53
2023-10-25T01:18:38.654Z,99853.72
2023-10-25T01:19:40.293Z,99868.19
2023-10-25T01:20:43.020Z,99871.06
2023-10-25T01:21:45.112Z,99864.66
2023-10-25T01:22:49.873Z,99867.75
2023-10-25T01:23:56.962Z,99870.34
2023-10-25T01:24:58.567Z,99859.28
2023-10-25T01:26:00.039Z,99866.59
2023-10-25T01:27:01.490Z,99868.03
2023-10-25T01:28:03.054Z,99859.97
2023-10-25T01:29:05.210Z,99871.88
2023-10-25T01:30:07.375Z,99869.13
2023-10-25T01:31:08.815Z,99864.66
2023-10-25T01:32:10.643Z,99860.38
2023-10-25T01:33:12.333Z,99860.50
2023-10-25T01:34:13.968Z,99869.69
2023-10-25T01:35:15.913Z,99862.47
2023-10-25T01:36:17.286Z,99864.22
2023-10-25T01:37:18.889Z,99860.59
2023-10-25T01:38:20.365Z,99868.47
2023-10-25T01:39:21.894Z,99864.06
2023-10-25T01:40:23.496Z,99864.41
2023-10-25T01:41:25.139Z,99874.25
2023-10-25T01:42:26.847Z,99869.53
2023-10-25T01:43:29.462Z,99872.59
2023-10-25T01:44:31.048Z,99875.81
2023-10-25T01:45:32.647Z,99866.09
2023-10-25T01:46:34.185Z,99869.69
2023-10-25T01:47:35.844Z,99867.56
2023-10-25T01:48:40.625Z,99869.06
2023-10-25T01:49:44.286Z,99873.78
2023-10-25T01:50:45.984Z,99873.94
2023-10-25T01:51:47.449Z,99882.22
2023-10-25T01:52:49.038Z,99876.75
2023-10-25T01:53:50.463Z,99873.09
2023-10-25T01:54:52.043Z,99870.22
2023-10-25T01:55:54.221Z,99867.47
2023-10-25T01:56:55.684Z,99866.25
2023-10-25T01:57:57.276Z,99867.47
2023-10-25T01:58:59.002Z,99869.66
2023-10-25T02:00:02.607Z,99870.03
2023-10-25T02:01:07.771Z,99872.72
2023-10-25T02:02:11.158Z,99879.13
2023-10-25T02:03:12.669Z,99868.38
2023-10-25T02:04:14.294Z,99876.25
2023-10-25T02:05:15.880Z,99875.75
2023-10-25T02:06:17.377Z,99872.94
2023-10-25T02:07:19.517Z,99884.66
2023-10-25T02:08:20.998Z,99880.97
2023-10-25T02:09:22.908Z,99875.44
2023-10-25T02:10:24.376Z,99889.03
2023-10-25T02:11:25.966Z,99883.88
2023-10-25T02:12:27.420Z,99878.56
2023-10-25T02:13:28.849Z,99884.91
2023-10-25T02:14:30.310Z,99883.34
2023-10-25T02:15:31.845Z,99888.59
2023-10-25T02:16:33.370Z,99883.00
2023-10-25T02:17:34.804Z,99886.50
2023-10-25T02:18:36.228Z,99884.97
2023-10-25T02:19:37.947Z,99884.91
2023-10-25T02:20:39.770Z,99890.25
2023-10-25T02:21:41.291Z,99891.28
2023-10-25T02:22:42.820Z,99893.31
2023-10-25T02:23:44.438Z,99890.13
2023-10-25T02:24:46.020Z,99891.78
2023-10-25T02:25:47.453Z,99890.66
2023-10-25T02:26:50.991Z,99899.53
2023-10-25T02:27:52.457Z,99904.78
2023-10-25T02:28:54.753Z,99903.75
2023-10-25T02:29:56.215Z,99907.38
2023-10-25T02:30:57.688Z,99899.03
2023-10-25T02:31:59.274Z,99907.50
2023-10-25T02:33:00.861Z,99909.34
2023-10-25T02:34:02.746Z,99902.81
2023-10-25T02:35:04.693Z,99895.22
2023-10-25T02:36:06.505Z,99886.88
2023-10-25T02:37:08.014Z,99888.59
2023-10-25T02:38:09.499Z,99902.22
2023-10-25T02:39:11.613Z,99898.16
2023-10-25T02:40:13.116Z,99898.00
2023-10-25T02:41:14.646Z,99908.94
2023-10-25T02:42:16.113Z,99909.25
2023-10-25T02:43:17.618Z,99913.66
2023-10-25T02:44:19.180Z,99910.09
2023-10-25T02:45:20.691Z,99915.63
2023-10-25T02:46:22.441Z,99916.66
2023-10-25T02:47:24.028Z,99921.97
2023-10-25T02:48:25.483Z,99922.47
2023-10-25T02:49:27.108Z,99924.53
2023-10-25T02:50:30.173Z,99928.22
2023-10-25T02:51:32.821Z,99928.66
2023-10-25T02:52:34.335Z,99926.31
2023-10-25T02:53:35.792Z,99928.97
2023-10-25T02:54:37.234Z,99930.44
2023-10-25T02:55:38.701Z,99928.63
2023-10-25T02:56:40.208Z,99929.47
2023-10-25T02:57:42.300Z,99930.59
2023-10-25T02:58:43.780Z,99931.66
2023-10-25T02:59:45.232Z,99924.22
2023-10-25T03:00:46.709Z,99923.19
2023-10-25T03:01:48.287Z,99928.53
2023-10-25T03:02:49.866Z,99933.06
2023-10-25T03:03:52.666Z,99928.66
2023-10-25T03:04:54.451Z,99929.56
2023-10-25T03:05:56.659Z,99923.19
2023-10-25T03:06:58.214Z,99927.63
2023-10-25T03:07:59.711Z,99928.53
2023-10-25T03:09:01.161Z,99937.66
2023-10-25T03:10:03.357Z,99934.25
2023-10-25T03:11:04.853Z,99936.50
2023-10-25T03:12:06.516Z,99938.28
2023-10-25T03:13:08.138Z,99945.44
2023-10-25T03:14:09.653Z,99934.56
2023-10-25T03:15:11.237Z,99935.31
2023-10-25T03:16:14.713Z,99945.31
2023-10-25T03:17:16.309Z,99939.13
2023-10-25T03:18:17.828Z,99937.16
2023-10-25T03:19:19.493Z,99952.66
2023-10-25T03:20:21.225Z,99942.63
2023-10-25T03:21:23.423Z,99941.75
2023-10-25T03:22:24.864Z,99945.19
2023-10-25T03:23:26.312Z,99950.53
2023-10-25T03:24:28.869Z,99945.06
2023-10-25T03:25:30.356Z,99948.72
2023-10-25T03:26:31.842Z,99948.50
2023-10-25T03:27:33.336Z,99945.81
2023-10-25T03:28:38.413Z,99955.94
2023-10-25T03:29:42.175Z,99949.59
2023-10-25T03:30:43.901Z,99949.44
2023-10-25T03:31:45.548Z,99950.16
2023-10-25T03:32:47.158Z,99942.78
2023-10-25T03:33:49.297Z,99944.78
2023-10-25T03:34:53.892Z,99946.72
2023-10-25T03:35:55.705Z,99947.47
2023-10-25T03:36:57.289Z,99948.38
2023-10-25T03:37:58.766Z,99952.19
2023-10-25T03:39:01.127Z,99955.09
2023-10-25T03:40:02.642Z,99959.75
2023-10-25T03:41:08.998Z,99954.47
2023-10-25T03:42:10.699Z,99958.78
2023-10-25T03:43:12.157Z,99951.56
2023-10-25T03:44:14.307Z,99953.44
2023-10-25T03:45:15.804Z,99952.53
2023-10-25T03:46:17.339Z,99945.94
2023-10-25T03:47:18.960Z,99949.75
2023-10-25T03:48:20.433Z,99952.31
2023-10-25T03:49:22.207Z,99945.81
2023-10-25T03:50:26.096Z,99948.72
2023-10-25T03:51:27.552Z,99943.41
2023-10-25T03:52:29.640Z,99954.34
2023-10-25T03:53:35.268Z,99949.88
2023-10-25T03:54:40.085Z,99941.75
2023-10-25T03:55:41.566Z,99949.13
2023-10-25T03:56:43.461Z,99944.59
2023-10-25T03:57:44.897Z,99950.03
2023-10-25T03:58:46.446Z,99942.22
2023-10-25T03:59:47.922Z,99950.72
2023-10-25T04:00:49.595Z,99946.25
2023-10-25T04:01:51.250Z,99957.16
2023-10-25T04:02:52.929Z,99956.19
2023-10-25T04:03:54.698Z,99958.97
2023-10-25T04:04:56.280Z,99959.97
2023-10-25T04:05:57.798Z,99948.03
2023-10-25T04:06:59.298Z,99951.78
2023-10-25T04:08:00.769Z,99953.63
2023-10-25T04:09:02.621Z,99951.72
2023-10-25T04:10:04.457Z,99946.63
2023-10-25T04:11:06.099Z,99951.97
2023-10-25T04:12:13.090Z,99953.97
2023-10-25T04:13:14.561Z,99954.69
2023-10-25T04:14:16.457Z,99956.59
2023-10-25T04:15:17.966Z,99949.28
2023-10-25T04:16:19.516Z,99948.34
2023-10-25T04:17:21.012Z,99952.28
2023-10-25T04:18:23.324Z,99946.50
2023-10-25T04:19:24.828Z,99951.97
2023-10-25T04:20:26.366Z,99952.84
2023-10-25T04:21:27.867Z,99952.78
2023-10-25T04:22:29.628Z,99946.50
2023-10-25T04:23:32.024Z,99949.28
2023-10-25T04:24:34.502Z,99958.56
2023-10-25T04:25:35.943Z,99955.09
2023-10-25T04:26:37.410Z,99946.97
2023-10-25T04:27:38.868Z,99955.88
2023-10-25T04:28:44.975Z,99961.22
2023-10-25T04:29:46.415Z,99947.56
2023-10-25T04:30:48.218Z,99959.56
2023-10-25T04:31:49.910Z,99950.72
2023-10-25T04:32:51.538Z,99954.34
2023-10-25T04:33:53.087Z,99959.28
2023-10-25T04:34:54.810Z,99949.63
2023-10-25T04:35:57.615Z,99952.59
2023-10-25T04:36:59.112Z,99955.38
2023-10-25T04:38:00.812Z,99949.91
2023-10-25T04:39:02.302Z,99948.16
2023-10-25T04:40:04.939Z,99948.34
2023-10-25T04:41:06.441Z,99955.16
2023-10-25T04:42:07.878Z,99952.81
2023-10-25T04:43:09.339Z,99955.75
2023-10-25T04:44:10.984Z,99952.22
2023-10-25T04:45:12.477Z,99954.72
2023-10-25T04:46:17.063Z,99957.59
2023-10-25T04:47:18.602Z,99951.25
2023-10-25T04:48:20.278Z,99945.91
2023-10-25T04:49:21.812Z,99951.38
2023-10-25T04:50:23.841Z,99943.94
2023-10-25T04:51:25.411Z,99944.19
2023-10-25T04:52:26.861Z,99947.81
2023-10-25T04:53:28.333Z,99949.69
2023-10-25T04:54:29.816Z,99944.25
2023-10-25T04:55:32.383Z,99945.09
2023-10-25T04:56:33.822Z,99947.72
2023-10-25T04:57:35.533Z,99948.50
2023-10-25T04:58:37.682Z,99944.34
2023-10-25T04:59:39.151Z,99944.19
2023-10-25T05:00:41.158Z,99953.03
2023-10-25T05:01:42.775Z,99946.16
2023-10-25T05:02:44.400Z,99933.31
2023-10-25T05:03:46.539Z,99943.19
2023-10-25T05:04:48.331Z,99937.72
2023-10-25T05:05:50.617Z,99935.16
2023-10-25T05:06:52.323Z,99926.94
2023-10-25T05:07:54.170Z,99940.69
2023-10-25T05:08:55.903Z,99942.38
2023-10-25T05:09:57.712Z,99933.56
2023-10-25T05:11:04.630Z,99940.97
2023-10-25T05:12:09.971Z,99938.38
2023-10-25T05:13:14.856Z,99935.78
2023-10-25T05:14:16.599Z,99939.28
2023-10-25T05:15:20.028Z,99936.66
2023-10-25T05:16:21.816Z,99943.91
2023-10-25T05:17:23.587Z,99939.44
2023-10-25T05:18:26.350Z,99933.00
2023-10-25T05:19:28.242Z,99938.50
2023-10-25T05:20:30.491Z,99933.16
2023-10-25T05:21:36.896Z,99933.88
2023-10-25T05:22:40.280Z,99934.00
2023-10-25T05:23:42.160Z,99934.16
2023-10-25T05:24:43.978Z,99934.22
2023-10-25T05:25:45.988Z,99935.09
2023-10-25T05:26:47.651Z,99938.03
2023-10-25T05:27:49.467Z,99930.97
2023-10-25T05:28:51.262Z,99934.84
2023-10-25T05:29:52.949Z,99935.91
2023-10-25T05:30:56.535Z,99937.84
2023-10-25T05:32:04.358Z,99937.13
2023-10-25T05:33:08.513Z,99939.78
2023-10-25T05:34:11.225Z,99945.41
2023-10-25T05:35:13.620Z,99935.53
2023-10-25T05:36:15.647Z,99943.59
2023-10-25T05:37:17.230Z,99938.31
2023-10-25T05:38:19.274Z,99934.00
2023-10-25T05:39:20.729Z,99941.28
2023-10-25T05:40:22.872Z,99937.84
2023-10-25T05:41:27.286Z,99930.59
2023-10-25T05:42:29.174Z,99937.03
2023-10-25T05:43:37.391Z,99927.13
2023-10-25T05:44:39.164Z,99941.69
2023-10-25T05:45:41.098Z,99938.13
2023-10-25T05:46:43.010Z,99943.66
2023-10-25T05:47:44.715Z,99954.59
2023-10-25T05:48:46.603Z,99951.94
2023-10-25T05:49:48.993Z,99941.09
2023-10-25T05:50:51.686Z,99946.69
2023-10-25T05:51:53.457Z,99948.53
2023-10-25T05:52:55.208Z,99954.91
2023-10-25T05:53:57.033Z,99951.31
2023-10-25T05:54:58.825Z,99955.03
2023-10-25T05:56:01.310Z,99954.22
2023-10-25T05:57:03.837Z,99945.28
2023-10-25T05:58:05.559Z,99957.03
2023-10-25T05:59:07.471Z,99957.97
2023-10-25T06:00:09.418Z,99962.38
2023-10-25T06:01:12.021Z,99960.59
2023-10-25T06:02:15.683Z,99957.84
2023-10-25T06:03:31.428Z,99953.47
2023-10-25T06:04:34.709Z,99956.84
2023-10-25T06:05:37.542Z,99969.31
2023-10-25T06:06:41.731Z,99960.94
2023-10-25T06:07:43.660Z,99970.81
2023-10-25T06:08:46.150Z,99979.84
2023-10-25T06:09:47.930Z,99962.41
2023-10-25T06:10:51.834Z,99964.19
2023-10-25T06:11:53.837Z,99971.16
2023-10-25T06:12:55.628Z,99960.25
2023-10-25T06:13:57.510Z,99963.75
2023-10-25T06:14:59.078Z,99967.28
2023-10-25T06:16:00.715Z,99968.97
2023-10-25T06:17:02.936Z,99966.25
2023-10-25T06:18:08.748Z,99965.38
2023-10-25T06:19:10.416Z,99970.63
2023-10-25T06:20:14.193Z,99966.94
2023-10-25T06:21:15.641Z,99969.69
2023-10-25T06:22:17.369Z,99976.84
2023-10-25T06:23:18.831Z,99973.22
2023-10-25T06:24:20.527Z,99973.19
2023-10-25T06:25:22.070Z,99972.22
2023-10-25T06:26:25.419Z,99978.56
2023-10-25T06:27:27.143Z,99974.69
2023-10-25T06:28:28.686Z,99976.38
2023-10-25T06:29:30.229Z,99973.53
2023-10-25T06:30:31.706Z,99981.38
2023-10-25T06:31:33.290Z,99987.69
2023-10-25T06:32:35.686Z,99979.16
2023-10-25T06:33:37.195Z,99979.09
2023-10-25T06:34:38.628Z,99973.53
2023-10-25T06:35:40.073Z,99974.38
2023-10-25T06:36:41.830Z,99982.53
2023-10-25T06:37:43.577Z,99976.19
2023-10-25T06:38:45.270Z,99984.09
2023-10-25T06:39:47.001Z,99979.66
2023-10-25T06:40:48.853Z,99984.97
2023-10-25T06:41:50.777Z,99979.50
2023-10-25T06:42:54.117Z,99987.47
2023-10-25T06:43:55.941Z,99984.91
2023-10-25T06:44:57.799Z,99980.28
2023-10-25T06:46:00.092Z,99982.03
2023-10-25T06:47:01.950Z,99979.25
2023-10-25T06:48:03.818Z,99983.59
2023-10-25T06:49:05.805Z,99986.25
2023-10-25T06:50:07.657Z,99982.91
2023-10-25T06:51:10.305Z,99990.81
2023-10-25T06:52:12.363Z,99987.19
2023-10-25T06:53:14.264Z,99977.44
2023-10-25T06:54:15.910Z,99982.91
2023-10-25T06:55:17.814Z,99977.59
2023-10-25T06:56:19.605Z,99977.66
2023-10-25T06:57:21.410Z,99981.00
2023-10-25T06:58:23.158Z,99983.91
2023-10-25T06:59:24.968Z,99979.41
2023-10-25T07:00:27.237Z,99982.00
2023-10-25T07:01:33.073Z,99985.91
2023-10-25T07:02:39.852Z,99982.25
2023-10-25T07:03:47.003Z,99977.84
2023-10-25T07:04:55.496Z,99980.72
2023-10-25T07:06:00.894Z,99979.00
2023-10-25T07:07:10.501Z,99986.84
2023-10-25T07:08:12.743Z,99990.56
2023-10-25T07:09:17.557Z,99982.44
2023-10-25T07:10:20.724Z,99984.34
2023-10-25T07:11:25.086Z,99973.16
2023-10-25T07:12:26.878Z,99980.28
2023-10-25T07:13:28.455Z,99982.25
2023-10-25T07:14:31.604Z,99978.47
2023-10-25T07:15:33.977Z,99982.00
2023-10-25T07:16:35.921Z,99977.38
2023-10-25T07:17:38.985Z,99973.66
2023-10-25T07:18:40.715Z,99974.44
2023-10-25T07:19:44.684Z,99983.25
2023-10-25T07:20:46.210Z,99980.44
2023-10-25T07:21:47.769Z,99979.22
2023-10-25T07:22:49.292Z,99981.06
2023-10-25T07:23:50.834Z,99981.81
2023-10-25T07:24:52.322Z,99980.78
2023-10-25T07:25:54.176Z,99982.34
2023-10-25T07:26:55.706Z,99978.06
2023-10-25T07:27:57.348Z,99985.00
2023-10-25T07:28:58.799Z,99991.22
2023-10-25T07:30:00.348Z,99986.56
2023-10-25T07:31:01.968Z,99984.22
2023-10-25T07:32:06.794Z,99991.13
2023-10-25T07:33:09.103Z,99982.94
2023-10-25T07:34:12.269Z,99992.81
2023-10-25T07:35:13.785Z,99990.16
2023-10-25T07:36:15.395Z,99981.97
2023-10-25T07:37:16.890Z,100001.81
2023-10-25T07:38:18.384Z,99993.59
2023-10-25T07:39:19.871Z,99996.47
2023-10-25T07:40:22.074Z,100001.94
2023-10-25T07:41:23.618Z,100004.97
2023-10-25T07:42:25.429Z,100000.28
2023-10-25T07:43:26.908Z,100002.88
2023-10-25T07:44:29.416Z,100004.59
2023-10-25T07:45:30.922Z,100003.94
2023-10-25T07:46:32.600Z,99998.31
2023-10-25T07:47:34.458Z,99998.28
2023-10-25T07:48:35.906Z,100002.88
2023-10-25T07:49:37.555Z,100004.38
2023-10-25T07:50:39.110Z,99990.66
2023-10-25T07:51:40.588Z,99996.00
2023-10-25T07:52:42.057Z,99997.78
2023-10-25T07:53:43.577Z,99998.16
2023-10-25T07:54:45.248Z,99990.53
2023-10-25T07:57:10.372Z,99985.44
2023-10-25T07:58:24.646Z,99989.59
2023-10-25T07:59:28.791Z,99992.91
2023-10-25T08:00:30.314Z,99996.31
2023-10-25T08:01:31.807Z,99989.69
2023-10-25T08:02:33.317Z,99984.97
2023-10-25T08:03:34.937Z,99981.41
2023-10-25T08:04:36.624Z,99975.94
2023-10-25T08:05:38.142Z,99973.94
2023-10-25T08:06:39.957Z,99970.25
2023-10-25T08:07:43.156Z,99970.13
2023-10-25T08:08:44.637Z,99968.47
2023-10-25T08:09:48.161Z,99973.81
2023-10-25T08:10:49.668Z,99978.19
2023-10-25T08:11:51.342Z,99966.28
2023-10-25T08:12:52.900Z,99965.13
2023-10-25T08:13:54.386Z,99969.53
2023-10-25T08:14:55.929Z,99974.28
2023-10-25T08:16:01.836Z,99970.34
2023-10-25T08:17:03.951Z,99966.56
2023-10-25T08:18:05.563Z,99969.53
2023-10-25T08:19:08.624Z,99969.00
2023-10-25T08:20:10.702Z,99967.22
2023-10-25T08:21:17.202Z,99968.81
2023-10-25T08:22:18.715Z,99962.88
2023-10-25T08:23:20.582Z,99962.75
2023-10-25T08:24:22.065Z,99964.69
2023-10-25T08:25:23.774Z,99971.19
2023-10-25T08:26:27.567Z,99962.94
2023-10-25T08:27:29.120Z,99964.81
2023-10-25T08:28:30.752Z,99959.44
2023-10-25T08:29:32.278Z,99973.94
2023-10-25T08:30:33.761Z,99960.16
2023-10-25T08:31:35.801Z,99967.28
2023-10-25T08:32:37.607Z,99971.69
2023-10-25T08:33:39.251Z,99971.44
2023-10-25T08:34:48.083Z,99965.84
2023-10-25T08:35:49.784Z,99962.78
2023-10-25T08:36:53.322Z,99959.16
2023-10-25T08:37:54.771Z,99961.91
2023-10-25T08:38:56.930Z,99965.25
2023-10-25T08:39:58.533Z,99961.50
2023-10-25T08:41:07.684Z,99959.31
2023-10-25T08:42:13.082Z,99959.91
2023-10-25T08:43:17.844Z,99948.50
2023-10-25T08:44:20.675Z,99963.19
2023-10-25T08:45:22.404Z,99966.31
2023-10-25T08:46:25.893Z,99966.13
2023-10-25T08:47:27.496Z,99969.72
2023-10-25T08:48:29.380Z,99961.34
2023-10-25T08:49:31.037Z,99964.69
2023-10-25T08:50:32.861Z,99964.25
2023-10-25T08:51:36.580Z,99970.63
2023-10-25T08:52:38.529Z,99967.06
2023-10-25T08:53:42.430Z,99973.25
2023-10-25T08:54:44.655Z,99975.13
2023-10-25T08:55:46.191Z,99970.38
2023-10-25T08:56:47.849Z,99971.28
2023-10-25T08:57:55.310Z,99973.78
2023-10-25T08:59:02.611Z,99974.19
2023-10-25T09:00:08.637Z,99976.84
2023-10-25T09:01:10.238Z,99980.34
2023-10-25T09:02:13.048Z,99977.75
2023-10-25T09:03:33.368Z,99982.00
2023-10-25T09:04:35.108Z,99974.50
2023-10-25T09:05:41.148Z,99983.66
2023-10-25T09:06:42.691Z,99977.28
2023-10-25T09:07:44.218Z,99981.88
2023-10-25T09:08:57.504Z,99979.47
2023-10-25T09:09:59.733Z,99980.13
2023-10-25T09:11:03.943Z,99982.00
2023-10-25T09:12:05.940Z,99974.44
2023-10-25T09:13:14.690Z,99984.25
2023-10-25T09:14:16.543Z,99985.50
2023-10-25T09:15:30.909Z,99982.22
2023-10-25T09:16:32.506Z,99980.56
2023-10-25T09:17:35.531Z,99984.69
2023-10-25T09:18:40.885Z,99980.66
2023-10-25T09:19:46.612Z,99977.56
2023-10-25T09:21:03.993Z,99979.47
2023-10-25T09:22:31.210Z,99977.81
2023-10-25T09:23:36.083Z,99977.22
2023-10-25T09:24:48.464Z,99960.69
2023-10-25T09:25:51.072Z,99969.84
2023-10-25T09:26:55.857Z,99971.50
2023-10-25T09:27:57.395Z,99974.94
2023-10-25T09:28:58.940Z,99966.59
2023-10-25T09:30:26.560Z,99965.34
2023-10-25T09:31:31.485Z,99969.00
2023-10-25T09:32:33.347Z,99961.25
2023-10-25T09:33:34.857Z,99965.50
2023-10-25T09:34:37.426Z,99964.56
2023-10-25T09:35:39.060Z,99954.97
2023-10-25T09:36:40.660Z,99963.47
2023-10-25T09:37:42.136Z,99967.41
2023-10-25T09:38:43.786Z,99957.97
2023-10-25T09:39:45.473Z,99954.78
2023-10-25T09:40:47.405Z,99966.59
2023-10-25T09:41:53.712Z,99960.88
2023-10-25T09:43:00.448Z,99953.31
2023-10-25T09:44:10.093Z,99955.69
2023-10-25T09:45:16.169Z,99954.41
2023-10-25T09:46:19.580Z,99956.88
2023-10-25T09:47:26.806Z,99960.91
2023-10-25T09:48:31.151Z,99958.22
2023-10-25T09:49:34.779Z,99962.06
2023-10-25T09:50:42.781Z,99956.59
2023-10-25T09:52:07.366Z,99957.66
2023-10-25T09:53:18.349Z,99960.56
2023-10-25T09:54:30.537Z,99960.38
2023-10-25T09:55:34.825Z,99955.00
2023-10-25T09:56:36.862Z,99954.91
2023-10-25T09:57:40.053Z,99964.56
2023-10-25T09:58:42.036Z,99957.28
2023-10-25T09:59:44.288Z,99966.06
2023-10-25T10:00:46.997Z,99965.00
2023-10-25T10:01:49.089Z,99962.88
2023-10-25T10:03:02.336Z,99965.81
2023-10-25T10:04:34.775Z,99965.97
2023-10-25T10:05:50.082Z,99961.97
2023-10-25T10:06:54.171Z,99968.81
2023-10-25T10:08:09.766Z,99964.28
2023-10-25T10:09:24.266Z,99952.41
2023-10-25T10:10:35.731Z,99963.72
2023-10-25T10:11:44.779Z,99958.09
2023-10-25T10:12:46.455Z,99965.16
2023-10-25T10:13:47.907Z,99961.22
2023-10-25T10:14:49.384Z,99955.16
2023-10-25T10:16:10.503Z,99947.88
2023-10-25T10:17:15.422Z,99950.72
2023-10-25T10:18:19.374Z,99948.06
2023-10-25T10:19:22.796Z,99949.06
2023-10-25T10:20:28.665Z,99943.72
2023-10-25T10:21:30.183Z,99944.91
2023-10-25T10:22:31.708Z,99952.34
2023-10-25T10:23:37.486Z,99951.00
2023-10-25T10:24:46.183Z,99948.00
2023-10-25T10:25:51.300Z,99950.59
2023-10-25T10:26:54.586Z,99952.84
2023-10-25T10:28:02.620Z,99949.53
2023-10-25T10:29:05.217Z,99945.66
2023-10-25T10:30:38.623Z,99948.47
2023-10-25T10:31:56.977Z,99942.34
2023-10-25T10:32:58.604Z,99941.94
2023-10-25T10:34:00.295Z,99942.31
2023-10-25T10:35:02.832Z,99942.03
2023-10-25T10:36:04.638Z,99940.91
2023-10-25T10:37:08.712Z,99937.00
2023-10-25T10:38:10.211Z,99929.22
2023-10-25T10:39:12.718Z,99933.13
2023-10-25T10:40:14.874Z,99940.59
2023-10-25T10:41:27.296Z,99941.72
2023-10-25T10:42:31.978Z,99927.44
2023-10-25T10:43:33.763Z,99928.63
2023-10-25T10:44:36.594Z,99940.03
2023-10-25T10:45:44.691Z,99926.41
2023-10-25T10:46:52.854Z,99924.69
2023-10-25T10:48:03.997Z,99933.22
2023-10-25T10:49:12.093Z,99935.28
2023-10-25T10:50:19.731Z,99927.16
2023-10-25T10:51:21.223Z,99932.38
2023-10-25T10:52:22.656Z,99932.47
2023-10-25T10:53:24.166Z,99926.09
2023-10-25T10:54:25.748Z,99924.84
2023-10-25T10:55:27.584Z,99923.88
2023-10-25T10:56:29.078Z,99929.38
2023-10-25T10:57:32.239Z,99921.78
2023-10-25T10:58:33.742Z,99910.09
2023-10-25T10:59:35.359Z,99921.78
2023-10-25T11:00:37.251Z,99918.50
2023-10-25T11:01:38.652Z,99910.63
2023-10-25T11:02:45.272Z,99912.59
2023-10-25T11:03:46.960Z,99905.78
2023-10-25T11:04:48.569Z,99915.94
2023-10-25T11:05:53.055Z,99904.00
2023-10-25T11:06:54.701Z,99906.44
2023-10-25T11:07:56.601Z,99912.78
2023-10-25T11:09:01.032Z,99912.50
2023-10-25T11:10:03.178Z,99906.84
2023-10-25T11:11:04.692Z,99915.53
2023-10-25T11:12:08.877Z,99909.41
2023-10-25T11:13:11.046Z,99912.34
2023-10-25T11:14:12.643Z,99908.59
2023-10-25T11:15:14.705Z,99912.63
2023-10-25T11:16:16.750Z,99900.50
2023-10-25T11:17:18.293Z,99900.53
2023-10-25T11:18:19.898Z,99892.53
2023-10-25T11:19:21.441Z,99899.66
2023-10-25T11:20:23.030Z,99895.22
2023-10-25T11:21:24.628Z,99894.66
2023-10-25T11:22:26.629Z,99899.31
2023-10-25T11:23:29.016Z,99904.00
2023-10-25T11:24:30.702Z,99898.78
2023-10-25T11:25:32.564Z,99899.63
2023-10-25T11:26:38.597Z,99900.28
2023-10-25T11:27:41.468Z,99902.22
2023-10-25T11:28:43.121Z,99891.56
2023-10-25T11:29:44.849Z,99893.47
2023-10-25T11:30:46.429Z,99886.44
2023-10-25T11:31:50.809Z,99896.91
2023-10-25T11:32:53.678Z,99886.88
2023-10-25T11:33:55.929Z,99889.72
2023-10-25T11:34:57.655Z,99887.94
2023-10-25T11:35:59.197Z,99886.25
2023-10-25T11:37:04.359Z,99878.91
2023-10-25T11:38:07.304Z,99881.50
2023-10-25T11:39:09.422Z,99880.03
2023-10-25T11:40:12.049Z,99874.53
2023-10-25T11:41:13.768Z,99870.34
2023-10-25T11:42:15.506Z,99872.59
2023-10-25T11:43:17.328Z,99878.75
2023-10-25T11:44:23.268Z,99875.78
2023-10-25T11:45:25.115Z,99867.88
2023-10-25T11:46:35.784Z,99866.09
2023-10-25T11:47:39.311Z,99875.63
2023-10-25T11:48:40.861Z,99872.31
2023-10-25T11:49:42.412Z,99869.78
2023-10-25T11:50:47.614Z,99864.66
2023-10-25T11:51:49.198Z,99864.91
2023-10-25T11:52:50.679Z,99857.47
2023-10-25T11:53:52.191Z,99865.81
2023-10-25T11:54:57.328Z,99861.22
2023-10-25T11:56:00.071Z,99861.22
2023-10-25T11:57:01.719Z,99853.06
2023-10-25T11:58:04.375Z,99859.75
2023-10-25T11:59:06.029Z,99850.06
2023-10-25T12:00:10.864Z,99847.56
2023-10-25T12:01:12.546Z,99849.50
2023-10-25T12:02:14.175Z,99844.03
2023-10-25T12:03:16.004Z,99851.25
2023-10-25T12:04:17.757Z,99842.81
2023-10-25T12:05:19.658Z,99847.56
2023-10-25T12:06:21.046Z,99843.38
2023-10-25T12:07:23.707Z,99840.66
2023-10-25T12:08:25.253Z,99843.69
2023-10-25T12:09:27.011Z,99838.50
2023-10-25T12:10:28.797Z,99839.06
2023-10-25T12:11:30.354Z,99846.56
2023-10-25T12:12:32.104Z,99848.34
2023-10-25T12:13:33.562Z,99845.44
2023-10-25T12:14:35.086Z,99846.56
2023-10-25T12:15:36.662Z,99844.59
2023-10-25T12:16:38.122Z,99842.03
2023-10-25T12:17:39.682Z,99842.34
2023-10-25T12:18:41.443Z,99833.28
2023-10-25T12:19:43.599Z,99828.94
2023-10-25T12:20:45.330Z,99824.22